sensor_id;sensor_type;location;lat;lon;timestamp;pressure;altitude;pressure_sealevel;temperature;humidity
43420;BME280;29017;51.514;-0.178;2023-02-12T00:01:35;103351.06;;;11.76;66.17
43420;BME280;29017;51.514;-0.178;2023-02-12T00:04:02;103346.84;;;11.73;65.75
43420;BME280;29017;51.514;-0.178;2023-02-12T00:06:29;103348.63;;;11.73;66.25
43420;BME280;29017;51.514;-0.178;2023-02-12T00:08:56;103353.91;;;11.73;66.43
43420;BME280;29017;51.514;-0.178;2023-02-12T00:11:25;103351.31;;;11.71;66.26
43420;BME280;29017;51.514;-0.178;2023-02-12T00:13:52;103353.97;;;11.71;66.83
43420;BME280;29017;51.514;-0.178;2023-02-12T00:16:20;103346.13;;;11.70;66.12
43420;BME280;29017;51.514;-0.178;2023-02-12T00:18:49;103354.91;;;11.70;66.14
43420;BME280;29017;51.514;-0.178;2023-02-12T00:21:16;103353.97;;;11.71;66.21
43420;BME280;29017;51.514;-0.178;2023-02-12T00:23:43;103357.53;;;11.70;66.29
43420;BME280;29017;51.514;-0.178;2023-02-12T00:26:11;103354.91;;;11.70;66.93
43420;BME280;29017;51.514;-0.178;2023-02-12T00:28:39;103352.25;;;11.70;67.80
43420;BME280;29017;51.514;-0.178;2023-02-12T00:31:07;103354.75;;;11.73;69.04
43420;BME280;29017;51.514;-0.178;2023-02-12T00:33:34;103354.03;;;11.70;68.22
43420;BME280;29017;51.514;-0.178;2023-02-12T00:36:01;103364.59;;;11.70;68.11
43420;BME280;29017;51.514;-0.178;2023-02-12T00:38:28;103355.75;;;11.71;68.38
43420;BME280;29017;51.514;-0.178;2023-02-12T00:40:55;103355.66;;;11.72;69.24
43420;BME280;29017;51.514;-0.178;2023-02-12T00:43:22;103358.38;;;11.71;69.04
43420;BME280;29017;51.514;-0.178;2023-02-12T00:45:49;103356.59;;;11.71;68.80
43420;BME280;29017;51.514;-0.178;2023-02-12T00:48:16;103355.84;;;11.69;68.97
43420;BME280;29017;51.514;-0.178;2023-02-12T00:50:44;103359.31;;;11.70;69.87
43420;BME280;29017;51.514;-0.178;2023-02-12T00:53:11;103354.97;;;11.69;70.96
43420;BME280;29017;51.514;-0.178;2023-02-12T00:55:38;103354.16;;;11.68;71.41
43420;BME280;29017;51.514;-0.178;2023-02-12T00:58:05;103349.81;;;11.67;71.70
43420;BME280;29017;51.514;-0.178;2023-02-12T01:00:32;103349.06;;;11.65;70.79
43420;BME280;29017;51.514;-0.178;2023-02-12T01:02:59;103353.56;;;11.63;70.09
43420;BME280;29017;51.514;-0.178;2023-02-12T01:05:26;103356.22;;;11.63;70.42
43420;BME280;29017;51.514;-0.178;2023-02-12T01:07:53;103348.44;;;11.62;70.75
43420;BME280;29017;51.514;-0.178;2023-02-12T01:10:20;103345.78;;;11.62;70.30
43420;BME280;29017;51.514;-0.178;2023-02-12T01:12:47;103347.66;;;11.59;70.23
43420;BME280;29017;51.514;-0.178;2023-02-12T01:15:15;103346.94;;;11.57;70.54
43420;BME280;29017;51.514;-0.178;2023-02-12T01:17:42;103347.88;;;11.56;70.49
43420;BME280;29017;51.514;-0.178;2023-02-12T01:20:10;103345.22;;;11.56;70.42
43420;BME280;29017;51.514;-0.178;2023-02-12T01:22:38;103357.47;;;11.57;70.41
43420;BME280;29017;51.514;-0.178;2023-02-12T01:25:05;103348.81;;;11.55;70.51
43420;BME280;29017;51.514;-0.178;2023-02-12T01:27:32;103348.91;;;11.54;70.33
43420;BME280;29017;51.514;-0.178;2023-02-12T01:29:59;103355.00;;;11.54;70.51
43420;BME280;29017;51.514;-0.178;2023-02-12T01:32:26;103349.00;;;11.52;70.59
43420;BME280;29017;51.514;-0.178;2023-02-12T01:34:53;103345.31;;;11.55;71.51
43420;BME280;29017;51.514;-0.178;2023-02-12T01:37:20;103356.50;;;11.58;71.43
43420;BME280;29017;51.514;-0.178;2023-02-12T01:39:47;103343.44;;;11.57;71.10
43420;BME280;29017;51.514;-0.178;2023-02-12T01:42:14;103346.81;;;11.59;71.82
43420;BME280;29017;51.514;-0.178;2023-02-12T01:44:44;103351.16;;;11.60;72.43
43420;BME280;29017;51.514;-0.178;2023-02-12T01:47:30;103354.72;;;11.59;72.25
43420;BME280;29017;51.514;-0.178;2023-02-12T01:49:57;103358.28;;;11.58;72.24
43420;BME280;29017;51.514;-0.178;2023-02-12T01:52:27;103340.03;;;11.55;71.43
43420;BME280;29017;51.514;-0.178;2023-02-12T01:54:57;103350.69;;;11.53;71.36
43420;BME280;29017;51.514;-0.178;2023-02-12T01:57:25;103350.69;;;11.53;71.88
43420;BME280;29017;51.514;-0.178;2023-02-12T01:59:53;103351.53;;;11.54;73.52
43420;BME280;29017;51.514;-0.178;2023-02-12T02:02:22;103343.53;;;11.55;73.82
43420;BME280;29017;51.514;-0.178;2023-02-12T02:04:51;103346.16;;;11.55;73.88
43420;BME280;29017;51.514;-0.178;2023-02-12T02:07:18;103347.19;;;11.53;72.67
43420;BME280;29017;51.514;-0.178;2023-02-12T02:09:45;103344.69;;;11.51;72.37
43420;BME280;29017;51.514;-0.178;2023-02-12T02:12:15;103348.16;;;11.52;73.33
43420;BME280;29017;51.514;-0.178;2023-02-12T02:14:45;103356.25;;;11.49;73.98
43420;BME280;29017;51.514;-0.178;2023-02-12T02:27:13;103358.22;;;11.45;74.43
43420;BME280;29017;51.514;-0.178;2023-02-12T02:34:46;103359.25;;;11.43;74.13
43420;BME280;29017;51.514;-0.178;2023-02-12T02:39:46;103362.19;;;11.38;73.77
43420;BME280;29017;51.514;-0.178;2023-02-12T02:47:11;103353.72;;;11.33;72.88
43420;BME280;29017;51.514;-0.178;2023-02-12T02:49:44;103348.34;;;11.35;73.57
43420;BME280;29017;51.514;-0.178;2023-02-12T02:52:13;103345.72;;;11.35;74.36
43420;BME280;29017;51.514;-0.178;2023-02-12T02:54:44;103348.44;;;11.33;75.16
43420;BME280;29017;51.514;-0.178;2023-02-12T02:59:44;103338.88;;;11.32;74.08
43420;BME280;29017;51.514;-0.178;2023-02-12T03:04:42;103338.75;;;11.34;74.66
43420;BME280;29017;51.514;-0.178;2023-02-12T03:12:13;103326.34;;;11.36;75.30
43420;BME280;29017;51.514;-0.178;2023-02-12T03:14:46;103339.69;;;11.33;73.57
43420;BME280;29017;51.514;-0.178;2023-02-12T03:17:16;103332.63;;;11.33;74.99
43420;BME280;29017;51.514;-0.178;2023-02-12T03:19:45;103335.25;;;11.33;74.59
43420;BME280;29017;51.514;-0.178;2023-02-12T03:24:43;103341.66;;;11.29;74.23
43420;BME280;29017;51.514;-0.178;2023-02-12T03:29:38;103331.50;;;11.23;74.66
43420;BME280;29017;51.514;-0.178;2023-02-12T03:47:01;103337.91;;;11.19;75.28
43420;BME280;29017;51.514;-0.178;2023-02-12T03:49:33;103332.72;;;11.18;74.85
43420;BME280;29017;51.514;-0.178;2023-02-12T03:52:01;103326.72;;;11.15;74.79
43420;BME280;29017;51.514;-0.178;2023-02-12T03:54:29;103325.03;;;11.14;74.11
43420;BME280;29017;51.514;-0.178;2023-02-12T03:57:01;103328.59;;;11.13;73.98
43420;BME280;29017;51.514;-0.178;2023-02-12T03:59:29;103328.72;;;11.12;74.07
43420;BME280;29017;51.514;-0.178;2023-02-12T04:01:56;103333.13;;;11.11;73.71
43420;BME280;29017;51.514;-0.178;2023-02-12T04:04:24;103336.63;;;11.12;73.20
43420;BME280;29017;51.514;-0.178;2023-02-12T04:06:52;103331.44;;;11.10;73.22
43420;BME280;29017;51.514;-0.178;2023-02-12T04:09:19;103332.28;;;11.11;73.26
43420;BME280;29017;51.514;-0.178;2023-02-12T04:16:48;103321.47;;;11.15;72.68
43420;BME280;29017;51.514;-0.178;2023-02-12T04:19:19;103328.31;;;11.18;72.19
43420;BME280;29017;51.514;-0.178;2023-02-12T04:34:19;103322.59;;;11.11;71.98
43420;BME280;29017;51.514;-0.178;2023-02-12T04:39:20;103319.09;;;11.11;73.29
43420;BME280;29017;51.514;-0.178;2023-02-12T04:41:48;103315.53;;;11.12;72.99
43420;BME280;29017;51.514;-0.178;2023-02-12T04:44:16;103322.69;;;11.10;72.68
43420;BME280;29017;51.514;-0.178;2023-02-12T04:46:44;103328.78;;;11.10;72.55
43420;BME280;29017;51.514;-0.178;2023-02-12T04:49:12;103330.56;;;11.10;72.60
43420;BME280;29017;51.514;-0.178;2023-02-12T04:51:39;103327.09;;;11.09;72.40
43420;BME280;29017;51.514;-0.178;2023-02-12T04:54:06;103333.22;;;11.10;72.16
43420;BME280;29017;51.514;-0.178;2023-02-12T04:56:33;103323.53;;;11.10;72.68
43420;BME280;29017;51.514;-0.178;2023-02-12T04:58:59;103325.22;;;11.11;71.96
43420;BME280;29017;51.514;-0.178;2023-02-12T05:01:26;103326.16;;;11.10;72.31
43420;BME280;29017;51.514;-0.178;2023-02-12T05:03:56;103332.28;;;11.11;72.29
43420;BME280;29017;51.514;-0.178;2023-02-12T05:06:23;103328.59;;;11.13;72.96
43420;BME280;29017;51.514;-0.178;2023-02-12T05:08:51;103327.75;;;11.13;72.27
43420;BME280;29017;51.514;-0.178;2023-02-12T05:11:18;103336.63;;;11.12;71.95
43420;BME280;29017;51.514;-0.178;2023-02-12T05:13:47;103326.06;;;11.12;72.08
43420;BME280;29017;51.514;-0.178;2023-02-12T05:16:14;103331.22;;;11.13;72.77
43420;BME280;29017;51.514;-0.178;2023-02-12T05:18:41;103327.56;;;11.16;73.98
43420;BME280;29017;51.514;-0.178;2023-02-12T05:21:08;103325.78;;;11.17;73.85
43420;BME280;29017;51.514;-0.178;2023-02-12T05:23:36;103324.81;;;11.18;72.93
43420;BME280;29017;51.514;-0.178;2023-02-12T05:26:05;103325.78;;;11.17;72.64
43420;BME280;29017;51.514;-0.178;2023-02-12T05:28:32;103320.53;;;11.17;72.79
43420;BME280;29017;51.514;-0.178;2023-02-12T05:31:00;103316.19;;;11.15;73.39
43420;BME280;29017;51.514;-0.178;2023-02-12T05:33:30;103322.31;;;11.16;73.28
43420;BME280;29017;51.514;-0.178;2023-02-12T05:38:27;103315.97;;;11.19;72.55
43420;BME280;29017;51.514;-0.178;2023-02-12T05:40:54;103314.19;;;11.19;72.24
43420;BME280;29017;51.514;-0.178;2023-02-12T05:43:26;103317.59;;;11.21;72.20
43420;BME280;29017;51.514;-0.178;2023-02-12T05:45:53;103321.09;;;11.22;72.49
43420;BME280;29017;51.514;-0.178;2023-02-12T05:48:20;103321.94;;;11.22;72.47
43420;BME280;29017;51.514;-0.178;2023-02-12T05:50:47;103318.44;;;11.22;71.49
43420;BME280;29017;51.514;-0.178;2023-02-12T05:53:15;103318.44;;;11.22;71.10
43420;BME280;29017;51.514;-0.178;2023-02-12T05:55:42;103315.69;;;11.23;71.54
43420;BME280;29017;51.514;-0.178;2023-02-12T05:58:09;103320.03;;;11.24;71.43
43420;BME280;29017;51.514;-0.178;2023-02-12T06:00:36;103313.81;;;11.25;71.30
43420;BME280;29017;51.514;-0.178;2023-02-12T06:03:02;103313.81;;;11.25;71.43
43420;BME280;29017;51.514;-0.178;2023-02-12T06:05:29;103322.50;;;11.27;71.57
43420;BME280;29017;51.514;-0.178;2023-02-12T06:07:56;103318.03;;;11.28;71.81
43420;BME280;29017;51.514;-0.178;2023-02-12T06:10:23;103315.41;;;11.28;71.63
43420;BME280;29017;51.514;-0.178;2023-02-12T06:12:52;103319.94;;;11.26;71.35
43420;BME280;29017;51.514;-0.178;2023-02-12T06:15:22;103320.88;;;11.25;71.14
43420;BME280;29017;51.514;-0.178;2023-02-12T06:17:49;103323.59;;;11.23;71.91
43420;BME280;29017;51.514;-0.178;2023-02-12T06:20:15;103318.53;;;11.20;71.65
43420;BME280;29017;51.514;-0.178;2023-02-12T06:22:42;103322.09;;;11.19;70.89
43420;BME280;29017;51.514;-0.178;2023-02-12T06:25:09;103317.59;;;11.21;70.94
43420;BME280;29017;51.514;-0.178;2023-02-12T06:27:36;103322.88;;;11.21;71.32
43420;BME280;29017;51.514;-0.178;2023-02-12T06:30:03;103308.84;;;11.21;71.22
43420;BME280;29017;51.514;-0.178;2023-02-12T06:32:30;103303.56;;;11.21;71.08
43420;BME280;29017;51.514;-0.178;2023-02-12T06:34:57;103312.22;;;11.23;72.04
43420;BME280;29017;51.514;-0.178;2023-02-12T06:37:24;103314.84;;;11.23;72.16
43420;BME280;29017;51.514;-0.178;2023-02-12T06:39:51;103316.47;;;11.25;72.10
43420;BME280;29017;51.514;-0.178;2023-02-12T06:42:18;103317.31;;;11.26;71.47
43420;BME280;29017;51.514;-0.178;2023-02-12T06:44:45;103320.03;;;11.24;71.31
43420;BME280;29017;51.514;-0.178;2023-02-12T06:47:13;103325.22;;;11.26;72.03
43420;BME280;29017;51.514;-0.178;2023-02-12T06:49:39;103313.06;;;11.23;73.25
43420;BME280;29017;51.514;-0.178;2023-02-12T06:52:06;103315.81;;;11.22;73.94
43420;BME280;29017;51.514;-0.178;2023-02-12T06:54:33;103310.53;;;11.22;74.78
43420;BME280;29017;51.514;-0.178;2023-02-12T06:57:00;103316.75;;;11.21;74.79
43420;BME280;29017;51.514;-0.178;2023-02-12T06:59:26;103313.34;;;11.19;73.89
43420;BME280;29017;51.514;-0.178;2023-02-12T07:01:53;103314.41;;;11.16;73.60
43420;BME280;29017;51.514;-0.178;2023-02-12T07:04:20;103317.03;;;11.16;75.15
43420;BME280;29017;51.514;-0.178;2023-02-12T07:06:47;103317.03;;;11.16;75.58
43420;BME280;29017;51.514;-0.178;2023-02-12T07:09:14;103311.84;;;11.14;75.36
43420;BME280;29017;51.514;-0.178;2023-02-12T07:11:41;103313.84;;;11.11;75.76
43420;BME280;29017;51.514;-0.178;2023-02-12T07:14:12;103314.97;;;11.07;75.48
43420;BME280;29017;51.514;-0.178;2023-02-12T07:16:39;103322.97;;;11.05;75.20
43420;BME280;29017;51.514;-0.178;2023-02-12T07:19:05;103326.53;;;11.04;75.90
43420;BME280;29017;51.514;-0.178;2023-02-12T07:21:32;103321.19;;;11.06;76.53
43420;BME280;29017;51.514;-0.178;2023-02-12T07:24:02;103330.78;;;11.07;77.36
43420;BME280;29017;51.514;-0.178;2023-02-12T07:26:29;103328.97;;;11.07;77.27
43420;BME280;29017;51.514;-0.178;2023-02-12T07:28:55;103335.75;;;11.11;78.43
43420;BME280;29017;51.514;-0.178;2023-02-12T07:31:26;103332.44;;;11.08;77.81
43420;BME280;29017;51.514;-0.178;2023-02-12T07:33:56;103333.22;;;11.10;78.36
43420;BME280;29017;51.514;-0.178;2023-02-12T07:36:24;103336.78;;;11.09;78.61
43420;BME280;29017;51.514;-0.178;2023-02-12T07:38:55;103333.22;;;11.10;78.02
43420;BME280;29017;51.514;-0.178;2023-02-12T07:41:23;103329.81;;;11.08;77.98
43420;BME280;29017;51.514;-0.178;2023-02-12T07:46:25;103338.56;;;11.08;77.14
43420;BME280;29017;51.514;-0.178;2023-02-12T07:48:57;103338.69;;;11.07;76.62
43420;BME280;29017;51.514;-0.178;2023-02-12T07:51:27;103340.34;;;11.08;76.55
43420;BME280;29017;51.514;-0.178;2023-02-12T07:53:54;103340.28;;;11.09;76.74
43420;BME280;29017;51.514;-0.178;2023-02-12T07:56:22;103335.75;;;11.11;77.24
43420;BME280;29017;51.514;-0.178;2023-02-12T07:58:50;103331.16;;;11.15;76.17
43420;BME280;29017;51.514;-0.178;2023-02-12T08:03:47;103342.44;;;11.17;74.15
43420;BME280;29017;51.514;-0.178;2023-02-12T08:08:45;103343.94;;;11.21;73.86
43420;BME280;29017;51.514;-0.178;2023-02-12T08:11:13;103343.00;;;11.22;74.53
43420;BME280;29017;51.514;-0.178;2023-02-12T08:13:40;103342.81;;;11.25;74.73
43420;BME280;29017;51.514;-0.178;2023-02-12T08:16:08;103342.72;;;11.27;73.73
43420;BME280;29017;51.514;-0.178;2023-02-12T08:18:35;103339.88;;;11.30;72.53
43420;BME280;29017;51.514;-0.178;2023-02-12T08:21:04;103337.06;;;11.33;72.81
43420;BME280;29017;51.514;-0.178;2023-02-12T08:23:32;103348.34;;;11.35;73.70
43420;BME280;29017;51.514;-0.178;2023-02-12T08:28:29;103353.53;;;11.36;73.96
43420;BME280;29017;51.514;-0.178;2023-02-12T08:31:00;103346.47;;;11.37;73.95
43420;BME280;29017;51.514;-0.178;2023-02-12T08:33:27;103345.50;;;11.38;73.61
43420;BME280;29017;51.514;-0.178;2023-02-12T08:38:27;103351.34;;;11.43;75.30
43420;BME280;29017;51.514;-0.178;2023-02-12T08:40:54;103356.63;;;11.43;75.79
43420;BME280;29017;51.514;-0.178;2023-02-12T08:43:21;103358.44;;;11.42;76.14
43420;BME280;29017;51.514;-0.178;2023-02-12T08:45:48;103360.41;;;11.39;75.62
43420;BME280;29017;51.514;-0.178;2023-02-12T08:48:15;103353.63;;;11.35;74.91
43420;BME280;29017;51.514;-0.178;2023-02-12T08:50:45;103351.75;;;11.37;77.68
43420;BME280;29017;51.514;-0.178;2023-02-12T08:53:12;103355.25;;;11.37;76.80
43420;BME280;29017;51.514;-0.178;2023-02-12T08:55:39;103356.06;;;11.38;77.38
43420;BME280;29017;51.514;-0.178;2023-02-12T08:58:05;103363.25;;;11.36;77.54
43420;BME280;29017;51.514;-0.178;2023-02-12T09:00:32;103366.88;;;11.33;77.58
43420;BME280;29017;51.514;-0.178;2023-02-12T09:02:59;103367.84;;;11.32;77.50
43420;BME280;29017;51.514;-0.178;2023-02-12T09:05:26;103365.09;;;11.34;78.20
43420;BME280;29017;51.514;-0.178;2023-02-12T09:07:52;103364.81;;;11.38;78.73
43420;BME280;29017;51.514;-0.178;2023-02-12T09:10:20;103363.78;;;11.41;78.04
43420;BME280;29017;51.514;-0.178;2023-02-12T09:12:47;103368.97;;;11.42;77.58
43420;BME280;29017;51.514;-0.178;2023-02-12T09:15:14;103369.53;;;11.47;78.46
43420;BME280;29017;51.514;-0.178;2023-02-12T09:17:41;103366.91;;;11.47;77.86
43420;BME280;29017;51.514;-0.178;2023-02-12T09:20:09;103372.19;;;11.47;77.54
43420;BME280;29017;51.514;-0.178;2023-02-12T09:22:36;103377.63;;;11.44;77.48
43420;BME280;29017;51.514;-0.178;2023-02-12T09:25:04;103369.81;;;11.43;77.47
43420;BME280;29017;51.514;-0.178;2023-02-12T09:27:32;103372.44;;;11.43;78.92
43420;BME280;29017;51.514;-0.178;2023-02-12T09:30:02;103375.38;;;11.38;79.70
43420;BME280;29017;51.514;-0.178;2023-02-12T09:32:29;103377.25;;;11.36;80.14
43420;BME280;29017;51.514;-0.178;2023-02-12T09:34:59;103373.88;;;11.34;80.85
43420;BME280;29017;51.514;-0.178;2023-02-12T09:37:25;103373.00;;;11.34;82.29
43420;BME280;29017;51.514;-0.178;2023-02-12T09:39:56;103378.41;;;11.32;81.83
43420;BME280;29017;51.514;-0.178;2023-02-12T09:42:27;103380.91;;;11.34;82.19
43420;BME280;29017;51.514;-0.178;2023-02-12T09:47:30;103373.69;;;11.37;83.33
43420;BME280;29017;51.514;-0.178;2023-02-12T09:52:29;103376.50;;;11.34;81.86
43420;BME280;29017;51.514;-0.178;2023-02-12T09:54:56;103378.00;;;11.38;81.09
43420;BME280;29017;51.514;-0.178;2023-02-12T09:57:26;103375.38;;;11.38;80.85
43420;BME280;29017;51.514;-0.178;2023-02-12T09:59:57;103364.81;;;11.38;79.95
43420;BME280;29017;51.514;-0.178;2023-02-12T10:02:24;103367.66;;;11.35;79.39
43420;BME280;29017;51.514;-0.178;2023-02-12T10:04:51;103372.16;;;11.33;79.54
43420;BME280;29017;51.514;-0.178;2023-02-12T10:07:33;103367.84;;;11.32;79.48
43420;BME280;29017;51.514;-0.178;2023-02-12T10:12:35;103361.81;;;11.30;80.15
43420;BME280;29017;51.514;-0.178;2023-02-12T10:27:38;103375.66;;;11.34;80.20
43420;BME280;29017;51.514;-0.178;2023-02-12T10:30:13;103371.31;;;11.33;80.04
43420;BME280;29017;51.514;-0.178;2023-02-12T10:32:40;103374.34;;;11.41;80.35
43420;BME280;29017;51.514;-0.178;2023-02-12T10:37:42;103375.75;;;11.46;77.79
43420;BME280;29017;51.514;-0.178;2023-02-12T10:42:42;103379.13;;;11.48;77.09
43420;BME280;29017;51.514;-0.178;2023-02-12T10:45:11;103373.56;;;11.53;76.95
43420;BME280;29017;51.514;-0.178;2023-02-12T10:47:39;103374.13;;;11.58;76.94
43420;BME280;29017;51.514;-0.178;2023-02-12T10:50:13;103381.00;;;11.61;76.42
43420;BME280;29017;51.514;-0.178;2023-02-12T10:57:42;103383.00;;;11.57;75.77
43420;BME280;29017;51.514;-0.178;2023-02-12T11:00:14;103380.34;;;11.57;75.63
43420;BME280;29017;51.514;-0.178;2023-02-12T11:05:22;103372.06;;;11.49;76.47
43420;BME280;29017;51.514;-0.178;2023-02-12T11:07:50;103378.19;;;11.49;76.85
43420;BME280;29017;51.514;-0.178;2023-02-12T11:12:48;103373.84;;;11.48;76.83
43420;BME280;29017;51.514;-0.178;2023-02-12T11:15:15;103374.13;;;11.44;77.05
43420;BME280;29017;51.514;-0.178;2023-02-12T11:17:44;103381.47;;;11.39;76.67
43420;BME280;29017;51.514;-0.178;2023-02-12T11:25:14;103371.06;;;11.37;75.83
43420;BME280;29017;51.514;-0.178;2023-02-12T11:27:42;103366.72;;;11.36;76.72
43420;BME280;29017;51.514;-0.178;2023-02-12T11:32:36;103361.44;;;11.36;76.67
43420;BME280;29017;51.514;-0.178;2023-02-12T11:35:04;103358.59;;;11.39;76.79
43420;BME280;29017;51.514;-0.178;2023-02-12T11:37:32;103364.44;;;11.44;77.00
43420;BME280;29017;51.514;-0.178;2023-02-12T11:40:02;103358.88;;;11.49;77.58
43420;BME280;29017;51.514;-0.178;2023-02-12T11:42:29;103356.25;;;11.49;76.52
43420;BME280;29017;51.514;-0.178;2023-02-12T11:45:00;103359.66;;;11.51;76.70
43420;BME280;29017;51.514;-0.178;2023-02-12T11:47:29;103356.38;;;11.47;75.66
43420;BME280;29017;51.514;-0.178;2023-02-12T11:49:58;103358.16;;;11.47;75.00
43420;BME280;29017;51.514;-0.178;2023-02-12T11:52:33;103350.69;;;11.53;75.92
43420;BME280;29017;51.514;-0.178;2023-02-12T11:55:02;103359.44;;;11.54;75.40
43420;BME280;29017;51.514;-0.178;2023-02-12T12:00:00;103344.28;;;11.57;76.34
43420;BME280;29017;51.514;-0.178;2023-02-12T12:02:30;103341.38;;;11.62;75.85
43420;BME280;29017;51.514;-0.178;2023-02-12T12:07:33;103339.28;;;11.67;75.51
43420;BME280;29017;51.514;-0.178;2023-02-12T12:10:04;103335.59;;;11.70;75.33
43420;BME280;29017;51.514;-0.178;2023-02-12T12:15:11;103338.53;;;11.65;74.98
43420;BME280;29017;51.514;-0.178;2023-02-12T12:17:45;103334.84;;;11.68;76.15
43420;BME280;29017;51.514;-0.178;2023-02-12T12:20:20;103332.31;;;11.66;75.81
43420;BME280;29017;51.514;-0.178;2023-02-12T12:22:49;103335.13;;;11.63;75.97
43420;BME280;29017;51.514;-0.178;2023-02-12T12:30:27;103332.59;;;11.62;76.32
43420;BME280;29017;51.514;-0.178;2023-02-12T12:33:10;103327.13;;;11.65;76.62
43420;BME280;29017;51.514;-0.178;2023-02-12T12:43:17;103316.19;;;11.71;75.66
43420;BME280;29017;51.514;-0.178;2023-02-12T13:10:47;103295.00;;;11.72;78.93
43420;BME280;29017;51.514;-0.178;2023-02-12T13:13:19;103290.75;;;11.70;78.61
43420;BME280;29017;51.514;-0.178;2023-02-12T13:20:54;103284.75;;;11.68;78.65
43420;BME280;29017;51.514;-0.178;2023-02-12T13:25:55;103269.88;;;11.67;78.92
43420;BME280;29017;51.514;-0.178;2023-02-12T13:30:56;103266.47;;;11.65;79.09
43420;BME280;29017;51.514;-0.178;2023-02-12T13:33:26;103258.38;;;11.68;80.20
43420;BME280;29017;51.514;-0.178;2023-02-12T13:35:55;103258.25;;;11.69;79.98
43420;BME280;29017;51.514;-0.178;2023-02-12T13:38:29;103260.16;;;11.67;78.90
43420;BME280;29017;51.514;-0.178;2023-02-12T13:53:33;103256.47;;;11.70;78.67
43420;BME280;29017;51.514;-0.178;2023-02-12T13:58:45;103247.63;;;11.71;78.22
43420;BME280;29017;51.514;-0.178;2023-02-12T14:01:15;103249.97;;;11.75;79.09
43420;BME280;29017;51.514;-0.178;2023-02-12T14:06:33;103244.03;;;11.72;77.83
43420;BME280;29017;51.514;-0.178;2023-02-12T14:11:30;103238.00;;;11.70;77.08
43420;BME280;29017;51.514;-0.178;2023-02-12T14:13:58;103238.00;;;11.70;77.25
43420;BME280;29017;51.514;-0.178;2023-02-12T14:23:53;103226.59;;;11.69;77.56
43420;BME280;29017;51.514;-0.178;2023-02-12T14:26:21;103223.25;;;11.67;77.79
43420;BME280;29017;51.514;-0.178;2023-02-12T14:33:44;103225.03;;;11.67;78.52
43420;BME280;29017;51.514;-0.178;2023-02-12T14:36:12;103219.66;;;11.68;78.83
43420;BME280;29017;51.514;-0.178;2023-02-12T14:41:15;103214.28;;;11.70;78.80
43420;BME280;29017;51.514;-0.178;2023-02-12T14:43:45;103216.19;;;11.68;78.44
43420;BME280;29017;51.514;-0.178;2023-02-12T14:51:22;103224.81;;;11.70;78.47
43420;BME280;29017;51.514;-0.178;2023-02-12T14:53:53;103222.41;;;11.67;78.50
43420;BME280;29017;51.514;-0.178;2023-02-12T14:56:21;103222.69;;;11.62;78.41
43420;BME280;29017;51.514;-0.178;2023-02-12T14:58:49;103218.47;;;11.59;77.96
43420;BME280;29017;51.514;-0.178;2023-02-12T15:01:17;103207.06;;;11.59;78.73
43420;BME280;29017;51.514;-0.178;2023-02-12T15:03:51;103216.75;;;11.58;78.16
43420;BME280;29017;51.514;-0.178;2023-02-12T15:06:20;103209.59;;;11.61;77.86
43420;BME280;29017;51.514;-0.178;2023-02-12T15:13:51;103199.91;;;11.61;77.81
43420;BME280;29017;51.514;-0.178;2023-02-12T15:21:23;103196.50;;;11.59;77.29
43420;BME280;29017;51.514;-0.178;2023-02-12T15:26:23;103187.03;;;11.56;77.05
43420;BME280;29017;51.514;-0.178;2023-02-12T15:28:51;103186.19;;;11.56;77.25
43420;BME280;29017;51.514;-0.178;2023-02-12T15:31:19;103193.25;;;11.55;77.90
43420;BME280;29017;51.514;-0.178;2023-02-12T15:33:51;103179.22;;;11.55;77.59
43420;BME280;29017;51.514;-0.178;2023-02-12T15:36:20;103186.09;;;11.57;78.12
43420;BME280;29017;51.514;-0.178;2023-02-12T15:38:48;103180.69;;;11.59;79.10
43420;BME280;29017;51.514;-0.178;2023-02-12T15:43:46;103182.47;;;11.58;78.98
43420;BME280;29017;51.514;-0.178;2023-02-12T15:46:14;103176.34;;;11.58;78.41
43420;BME280;29017;51.514;-0.178;2023-02-12T15:48:45;103173.63;;;11.59;79.18
43420;BME280;29017;51.514;-0.178;2023-02-12T15:53:40;103175.00;;;11.52;78.75
43420;BME280;29017;51.514;-0.178;2023-02-12T15:56:10;103175.00;;;11.52;78.64
43420;BME280;29017;51.514;-0.178;2023-02-12T16:01:07;103174.25;;;11.50;78.69
43420;BME280;29017;51.514;-0.178;2023-02-12T16:03:35;103167.28;;;11.49;78.91
43420;BME280;29017;51.514;-0.178;2023-02-12T16:08:36;103166.53;;;11.47;78.94
43420;BME280;29017;51.514;-0.178;2023-02-12T16:11:04;103171.81;;;11.47;78.87
43420;BME280;29017;51.514;-0.178;2023-02-12T16:18:38;103161.47;;;11.44;78.55
43420;BME280;29017;51.514;-0.178;2023-02-12T16:23:35;103170.59;;;11.39;77.84
43420;BME280;29017;51.514;-0.178;2023-02-12T16:26:03;103160.06;;;11.39;78.49
43420;BME280;29017;51.514;-0.178;2023-02-12T16:28:33;103161.75;;;11.40;79.23
43420;BME280;29017;51.514;-0.178;2023-02-12T16:33:31;103142.47;;;11.39;78.77
43420;BME280;29017;51.514;-0.178;2023-02-12T16:36:02;103154.78;;;11.39;79.11
43420;BME280;29017;51.514;-0.178;2023-02-12T16:43:37;103153.00;;;11.39;80.99
43420;BME280;29017;51.514;-0.178;2023-02-12T16:46:07;103153.31;;;11.35;80.67
43420;BME280;29017;51.514;-0.178;2023-02-12T16:48:36;103151.81;;;11.31;80.83
43420;BME280;29017;51.514;-0.178;2023-02-12T16:51:03;103159.63;;;11.32;81.43
43420;BME280;29017;51.514;-0.178;2023-02-12T16:53:33;103159.19;;;11.26;81.09
43420;BME280;29017;51.514;-0.178;2023-02-12T16:56:02;103159.19;;;11.26;82.04
43420;BME280;29017;51.514;-0.178;2023-02-12T16:58:29;103162.53;;;11.28;82.61
43420;BME280;29017;51.514;-0.178;2023-02-12T17:00:57;103164.38;;;11.27;82.95
43420;BME280;29017;51.514;-0.178;2023-02-12T17:03:27;103162.47;;;11.29;83.50
43420;BME280;29017;51.514;-0.178;2023-02-12T17:05:57;103165.09;;;11.29;83.67
43420;BME280;29017;51.514;-0.178;2023-02-12T17:08:24;103163.41;;;11.28;83.63
43420;BME280;29017;51.514;-0.178;2023-02-12T17:10:51;103166.31;;;11.24;82.71